Estación municipal de St. Julià de Vilatorta (Osona, E.N.Guilleries-Savassona)

Consulta los datos en tiempo real de la estación municipal de St. Julià de Vilatorta





Hora UTC 02:30
Temperatura 8.0 ºC
Subsuelo 10 cm 6.5 ºC
Humedad 93.4 %
Presión 1011.6 hPa
Pluja 0.0 mm
Velocidad viento 3.5 km/h
Dirección viento ESE
Radiación solar 0.0 W/m²
Fuel 10.4 %

Webcam

Datos diarios 2026-05-08



Hora UTC (invierno +1h; verano +2h)
Temperatura (ºC) Humedad (%) Presión (hPa) Velocidad viento (km/h) Precipitación (mm) Fuel (%) Radiación solar (W/m²)
Hora UTC Aire Subsuelo 10 cm Humedad Presión Vel. Dir. Vel. Max Dir. Intent. máx 5 min. Fuel Rad. Sol.
00:05 8.9 6.9 93.1 1012.4 2.6 E 2.6 E 0.0 9.2 0.0
00:10 8.8 6.9 93.2 1012.4 1.7 ESE 3.4 E 0.0 9.3 0.0
00:15 8.7 7.0 93.5 1012.3 1.3 SE 2.5 E 0.0 9.3 0.0
00:20 8.7 7.1 93.9 1012.3 2.0 SE 3.8 ESE 0.0 9.4 0.0
00:25 8.8 7.1 93.8 1012.2 1.7 SSE 3.1 SSE 0.0 9.4 0.0
00:30 8.6 7.2 93.1 1012.2 1.4 SSE 3.2 SSE 0.0 9.5 0.0
00:35 8.5 7.2 93.4 1012.2 2.1 S 3.3 SSE 0.0 9.5 0.0
00:40 8.4 7.2 93.3 1012.2 2.8 SSE 3.7 SE 0.0 9.6 0.0
00:45 8.3 7.3 93.6 1012.2 2.0 SE 3.6 SE 0.0 9.6 0.0
00:50 8.3 7.3 93.8 1012.3 1.7 SSE 2.8 SSE 0.0 9.6 0.0
00:55 8.3 7.3 94.2 1012.2 1.0 ESE 2.7 E 0.0 9.7 0.0
01:00 8.4 7.3 94.6 1012.2 2.3 E 3.6 E 0.0 9.7 0.1
01:05 8.5 7.3 94.2 1012.1 2.2 SE 3.7 E 0.0 9.8 0.0
01:10 8.5 7.3 93.8 1012.0 2.3 ESE 4.0 ESE 0.0 9.8 0.0
01:15 8.5 7.3 93.8 1011.9 2.4 SE 3.8 ESE 0.0 9.8 0.0
01:20 8.5 7.3 93.0 1011.9 3.0 SE 5.4 SE 0.0 9.9 0.0
01:25 8.4 7.3 93.1 1011.9 3.6 SSE 5.3 SSE 0.0 9.9 0.0
01:30 8.4 7.2 92.6 1011.9 3.6 SSE 5.1 SSE 0.0 10.0 0.0
01:35 8.4 7.2 92.5 1011.9 2.3 SSE 4.0 SSE 0.0 10.0 0.0
01:40 8.4 7.2 92.3 1011.9 2.4 SSE 4.1 SE 0.0 10.0 0.0
01:45 8.4 7.2 92.4 1011.8 2.8 SSE 4.8 SE 0.0 10.0 0.0
01:50 8.3 7.1 92.5 1011.8 2.4 SE 4.4 SSE 0.0 10.1 0.0
01:55 8.2 7.1 92.7 1011.8 2.1 ESE 3.7 ESE 0.0 10.1 0.0
02:00 8.1 7.0 93.2 1011.8 3.5 E 5.8 E 0.0 10.1 0.0
02:05 8.0 6.9 93.7 1011.7 3.9 ESE 5.7 ESE 0.0 10.2 0.0
02:10 8.1 6.8 93.8 1011.7 3.3 ESE 5.7 E 0.0 10.2 0.0
02:15 8.1 6.7 93.7 1011.6 1.9 SE 3.1 SE 0.0 10.3 0.0
02:20 8.1 6.6 93.6 1011.6 2.2 SE 4.2 SE 0.0 10.3 0.0
02:25 8.1 6.6 93.5 1011.6 2.6 ESE 5.4 E 0.0 10.4 0.0
02:30 8.0 6.5 93.4 1011.6 3.5 ESE 5.9 ENE 0.0 10.4 0.0
Máxima 8.9 7.3 94.6 1012.4 3.9 ESE 5.9 ENE 0.0 10.4 0.1
Mínima 8.0 6.5 92.3 1011.6 9.2
Total 0.0